Time;durP1;ratioP1;P1;durP2;ratioP2;P2;SDS_P1;SDS_P2;PMS_P1;PMS_P2;Temp;Humidity;BMP_temperature;BMP_pressure;BME280_temperature;BME280_humidity;BME280_pressure;Samples;Min_cycle;Max_cycle;Signal;HPM_P1;HPM_P2
2023/08/01 00:00:35;;;;;;;0.97;0.67;;;18.30;84.50;;;;;;4982626;28;20058;-82
2023/08/01 00:03:01;;;;;;;0.43;0.40;;;18.50;84.10;;;;;;4983209;28;20844;-81
2023/08/01 00:05:27;;;;;;;0.20;0.20;;;18.40;83.90;;;;;;4982226;28;20022;-80
2023/08/01 00:07:53;;;;;;;0.10;0.10;;;18.40;84.20;;;;;;4982671;28;20109;-81
2023/08/01 00:10:18;;;;;;;1.93;0.93;;;18.40;84.60;;;;;;4982752;28;20038;-81
2023/08/01 00:12:44;;;;;;;0.60;0.60;;;18.50;84.20;;;;;;4981471;28;20073;-81
2023/08/01 00:15:10;;;;;;;0.53;0.53;;;18.50;84.00;;;;;;4981961;28;20792;-81
2023/08/01 00:17:36;;;;;;;0.00;0.00;;;18.60;83.70;;;;;;4982174;28;20039;-81
2023/08/01 00:20:03;;;;;;;1.00;1.00;;;18.70;83.30;;;;;;4982223;28;20858;-81
2023/08/01 00:22:28;;;;;;;;;;;18.80;82.40;;;;;;4982724;28;20058;-81
2023/08/01 00:24:54;;;;;;;0.20;0.20;;;18.70;83.10;;;;;;4982633;28;19910;-81
2023/08/01 00:27:20;;;;;;;0.10;0.10;;;18.50;83.80;;;;;;4981855;28;20174;-81
2023/08/01 00:29:45;;;;;;;0.20;0.20;;;18.40;84.40;;;;;;4982192;28;20037;-81
2023/08/01 00:32:11;;;;;;;0.10;0.10;;;18.20;85.30;;;;;;4980538;28;20125;-81
2023/08/01 00:34:37;;;;;;;1.60;0.63;;;18.00;86.40;;;;;;4980858;28;20058;-80
2023/08/01 00:37:03;;;;;;;0.10;0.10;;;17.90;86.60;;;;;;4982527;28;20086;-80
2023/08/01 00:39:29;;;;;;;0.00;0.00;;;17.90;86.70;;;;;;4982415;28;20045;-83
2023/08/01 00:41:54;;;;;;;1.60;0.63;;;18.00;86.70;;;;;;4982427;28;20487;-81
2023/08/01 00:44:20;;;;;;;0.07;0.07;;;18.20;86.10;;;;;;4986169;28;20533;-81
2023/08/01 00:46:46;;;;;;;0.13;0.13;;;18.20;86.60;;;;;;4985489;28;20915;-81
2023/08/01 00:49:13;;;;;;;1.47;1.37;;;18.30;86.60;;;;;;4987023;28;20036;-81
2023/08/01 00:51:39;;;;;;;;;;;18.30;86.00;;;;;;4986103;28;20026;-81
2023/08/01 00:54:04;;;;;;;4.45;0.43;;;18.30;86.20;;;;;;4984579;28;20388;-81
2023/08/01 00:56:30;;;;;;;0.00;0.00;;;18.30;86.10;;;;;;4985066;28;20113;-82
2023/08/01 00:58:56;;;;;;;0.50;0.50;;;18.30;85.90;;;;;;4983978;28;20034;-82
2023/08/01 01:01:22;;;;;;;0.00;0.00;;;18.20;86.10;;;;;;4985010;28;20041;-80
2023/08/01 01:03:48;;;;;;;0.00;0.00;;;18.10;86.00;;;;;;4982947;28;20394;-80
2023/08/01 01:06:23;;;;;;;;;;;18.00;86.50;;;;;;4984095;28;20405;-81
2023/08/01 01:08:49;;;;;;;0.10;0.10;;;18.00;86.50;;;;;;4985604;28;19992;-81
2023/08/01 01:11:15;;;;;;;0.03;0.03;;;17.90;87.10;;;;;;4984209;28;20509;-81
2023/08/01 01:13:40;;;;;;;0.83;0.67;;;17.90;87.00;;;;;;4985878;28;20038;-82
2023/08/01 01:16:06;;;;;;;39.20;1.13;;;18.00;86.70;;;;;;4985376;28;20072;-81
2023/08/01 01:18:32;;;;;;;0.00;0.00;;;18.20;86.10;;;;;;4985571;28;20038;-80
2023/08/01 01:20:58;;;;;;;0.10;0.10;;;18.10;86.20;;;;;;4983422;28;20124;-81
2023/08/01 01:23:25;;;;;;;1.10;0.30;;;18.00;87.40;;;;;;4983575;28;20034;-80
2023/08/01 01:25:52;;;;;;;0.57;0.32;;;18.10;87.00;;;;;;4983686;28;20034;-81
2023/08/01 01:28:19;;;;;;;0.10;0.10;;;18.00;87.50;;;;;;4984869;28;20026;-81
2023/08/01 01:30:45;;;;;;;0.47;0.47;;;17.90;87.80;;;;;;4984913;28;20738;-80
2023/08/01 01:33:11;;;;;;;;;;;17.90;88.20;;;;;;4985686;28;20034;-80
2023/08/01 01:35:37;;;;;;;0.10;0.10;;;17.90;88.30;;;;;;4985501;28;20385;-81
2023/08/01 01:38:05;;;;;;;0.30;0.30;;;18.00;87.90;;;;;;4983633;28;20678;-80
2023/08/01 01:40:32;;;;;;;3.30;0.75;;;18.20;87.50;;;;;;4983354;28;20410;-81
2023/08/01 01:42:59;;;;;;;0.13;0.13;;;18.30;87.00;;;;;;4984325;28;20500;-81
2023/08/01 01:45:26;;;;;;;0.93;0.90;;;18.30;86.80;;;;;;4982927;28;20831;-81
2023/08/01 01:47:52;;;;;;;0.30;0.30;;;18.30;86.90;;;;;;4986605;28;20510;-81
2023/08/01 01:50:18;;;;;;;0.00;0.00;;;18.30;86.90;;;;;;4984031;28;20672;-81
2023/08/01 01:52:44;;;;;;;0.00;0.00;;;18.30;87.00;;;;;;4983991;28;20050;-81
2023/08/01 01:55:09;;;;;;;0.35;0.35;;;18.30;87.20;;;;;;4983654;28;20261;-81
2023/08/01 01:57:36;;;;;;;0.30;0.30;;;18.30;87.20;;;;;;4983526;28;20071;-81
2023/08/01 02:00:05;;;;;;;1.15;0.38;;;18.30;87.30;;;;;;4983610;28;20493;-81
2023/08/01 02:02:31;;;;;;;0.22;0.15;;;18.40;86.70;;;;;;4983995;28;20516;-80
2023/08/01 02:04:57;;;;;;;0.77;0.77;;;18.40;86.40;;;;;;4982948;28;20565;-80
2023/08/01 02:07:22;;;;;;;0.77;0.77;;;18.40;86.50;;;;;;4982005;28;20034;-80
2023/08/01 02:09:48;;;;;;;0.00;0.00;;;18.30;87.00;;;;;;4983796;28;20692;-80
2023/08/01 02:12:14;;;;;;;1.87;0.67;;;18.40;86.90;;;;;;4983193;28;20056;-80
2023/08/01 02:14:40;;;;;;;0.22;0.22;;;18.40;87.00;;;;;;4983462;28;20022;-80
2023/08/01 02:17:07;;;;;;;0.20;0.20;;;18.40;87.10;;;;;;4983066;28;20034;-79
2023/08/01 02:19:33;;;;;;;0.00;0.00;;;18.40;87.60;;;;;;4983363;28;20038;-81
2023/08/01 02:21:59;;;;;;;0.40;0.40;;;18.40;87.60;;;;;;4983046;28;20057;-81
2023/08/01 02:24:24;;;;;;;0.43;0.43;;;18.40;87.80;;;;;;4983293;28;20027;-82
2023/08/01 02:26:51;;;;;;;0.00;0.00;;;18.30;88.20;;;;;;4982999;28;20037;-81
2023/08/01 02:29:17;;;;;;;0.10;0.10;;;18.30;87.60;;;;;;4982220;28;20037;-81
2023/08/01 02:31:42;;;;;;;0.00;0.00;;;18.30;87.90;;;;;;4983231;28;20089;-81
2023/08/01 02:34:08;;;;;;;0.10;0.10;;;18.40;88.40;;;;;;4983382;28;20034;-81
2023/08/01 02:36:34;;;;;;;0.00;0.00;;;18.30;88.30;;;;;;4983393;28;20112;-81
2023/08/01 02:38:59;;;;;;;2.80;0.40;;;18.30;88.60;;;;;;4979940;28;20121;-81
2023/08/01 02:41:25;;;;;;;0.10;0.10;;;18.40;88.50;;;;;;4980356;28;20049;-81
2023/08/01 02:43:51;;;;;;;0.10;0.10;;;18.40;88.20;;;;;;4981651;28;20030;-80
2023/08/01 02:46:17;;;;;;;0.33;0.33;;;18.40;88.00;;;;;;4982365;28;20041;-82
2023/08/01 02:48:42;;;;;;;0.00;0.00;;;18.40;88.40;;;;;;4984536;28;20061;-81
2023/08/01 02:51:11;;;;;;;0.60;0.60;;;18.40;88.00;;;;;;4981799;28;20208;-82
2023/08/01 02:53:37;;;;;;;0.22;0.22;;;18.40;88.30;;;;;;4976409;28;20042;-82
2023/08/01 02:56:04;;;;;;;0.10;0.10;;;18.30;88.40;;;;;;4983553;28;20644;-83
2023/08/01 02:58:30;;;;;;;0.10;0.10;;;18.40;88.60;;;;;;4983270;28;20144;-80
2023/08/01 03:00:56;;;;;;;0.07;0.07;;;18.40;88.80;;;;;;4981777;28;20486;-82
2023/08/01 03:03:22;;;;;;;0.13;0.13;;;18.40;88.60;;;;;;4982296;28;20034;-82
2023/08/01 03:05:47;;;;;;;1.03;0.83;;;18.30;88.90;;;;;;4981403;28;20023;-82
2023/08/01 03:08:13;;;;;;;0.00;0.00;;;18.30;89.10;;;;;;4983683;28;20108;-81
2023/08/01 03:10:39;;;;;;;0.13;0.13;;;18.30;89.30;;;;;;4983437;28;20483;-82
2023/08/01 03:13:05;;;;;;;0.37;0.37;;;18.30;89.30;;;;;;4983184;28;20026;-81
2023/08/01 03:15:30;;;;;;;0.20;0.20;;;18.30;89.40;;;;;;4981722;28;20114;-82
2023/08/01 03:17:57;;;;;;;0.20;0.20;;;18.30;89.70;;;;;;4983088;28;20039;-81
2023/08/01 03:20:23;;;;;;;0.30;0.30;;;18.30;90.00;;;;;;4983472;28;20043;-81
2023/08/01 03:22:48;;;;;;;0.20;0.20;;;18.30;89.80;;;;;;4984306;28;20058;-81
2023/08/01 03:25:14;;;;;;;0.00;0.00;;;18.30;90.00;;;;;;4983280;28;20601;-80
2023/08/01 03:27:40;;;;;;;0.33;0.33;;;18.20;90.00;;;;;;4981722;28;20042;-80
2023/08/01 03:30:08;;;;;;;0.27;0.27;;;18.20;90.00;;;;;;4981799;28;20038;-81
2023/08/01 03:32:36;;;;;;;0.10;0.10;;;18.20;90.20;;;;;;4982542;28;20031;-81
2023/08/01 03:35:06;;;;;;;0.10;0.10;;;18.20;90.10;;;;;;4982871;28;20030;-81
2023/08/01 03:37:32;;;;;;;0.00;0.00;;;18.20;90.10;;;;;;4982083;28;20112;-81
2023/08/01 03:39:57;;;;;;;0.20;0.20;;;18.20;90.10;;;;;;4982737;28;20030;-81
2023/08/01 03:42:23;;;;;;;0.13;0.13;;;18.20;90.10;;;;;;4981254;28;20069;-82
2023/08/01 03:44:49;;;;;;;0.30;0.20;;;18.10;90.50;;;;;;4980661;28;20553;-79
2023/08/01 03:47:14;;;;;;;0.00;0.00;;;18.20;90.40;;;;;;4982858;28;20053;-80
2023/08/01 03:49:40;;;;;;;0.20;0.20;;;18.30;90.40;;;;;;4982757;28;20663;-80
2023/08/01 03:52:06;;;;;;;0.00;0.00;;;18.20;90.70;;;;;;4982909;28;20030;-79
2023/08/01 03:54:32;;;;;;;0.55;0.55;;;18.20;90.70;;;;;;4983734;28;20037;-79
2023/08/01 03:56:57;;;;;;;2.40;0.40;;;18.20;90.70;;;;;;4981463;28;20026;-79
2023/08/01 03:59:23;;;;;;;5.57;1.17;;;18.30;90.60;;;;;;4983919;28;20758;-79
2023/08/01 04:01:50;;;;;;;0.40;0.40;;;18.30;90.60;;;;;;4983146;28;20382;-81
2023/08/01 04:04:16;;;;;;;0.00;0.00;;;18.20;90.80;;;;;;4978531;28;20089;-81
2023/08/01 04:06:42;;;;;;;0.73;0.73;;;18.20;90.90;;;;;;4980112;28;20034;-81
2023/08/01 04:09:08;;;;;;;0.50;0.50;;;18.20;91.10;;;;;;4982778;28;20030;-80
2023/08/01 04:11:33;;;;;;;0.20;0.20;;;18.20;91.10;;;;;;4981977;28;20491;-81
2023/08/01 04:13:59;;;;;;;0.07;0.07;;;18.20;91.00;;;;;;4981362;28;20038;-80
2023/08/01 04:16:25;;;;;;;0.00;0.00;;;18.20;91.40;;;;;;4982457;28;20023;-80
2023/08/01 04:18:50;;;;;;;0.03;0.03;;;18.10;91.80;;;;;;4988177;28;20525;-80
2023/08/01 04:21:16;;;;;;;0.10;0.10;;;18.10;91.80;;;;;;4986155;28;20168;-79
2023/08/01 04:23:42;;;;;;;0.73;0.73;;;18.20;91.60;;;;;;4984345;28;20034;-78
2023/08/01 04:26:07;;;;;;;0.00;0.00;;;18.20;91.60;;;;;;4986169;28;20057;-79
2023/08/01 04:28:34;;;;;;;0.07;0.07;;;18.20;92.00;;;;;;4986404;28;20096;-81
2023/08/01 04:31:00;;;;;;;0.10;0.10;;;18.10;91.80;;;;;;4984731;28;20629;-78
2023/08/01 04:33:26;;;;;;;0.00;0.00;;;18.20;91.80;;;;;;4986097;28;20117;-79
2023/08/01 04:35:52;;;;;;;0.10;0.10;;;18.20;91.70;;;;;;4981960;28;20559;-78
2023/08/01 04:38:17;;;;;;;0.10;0.10;;;18.20;91.80;;;;;;4982789;28;20030;-79
2023/08/01 04:40:43;;;;;;;0.03;0.03;;;18.20;91.80;;;;;;4984894;28;20113;-78
2023/08/01 04:43:10;;;;;;;0.10;0.10;;;18.20;92.00;;;;;;4985362;28;20524;-79
2023/08/01 04:45:36;;;;;;;0.10;0.10;;;18.10;92.00;;;;;;4985353;28;20037;-79
2023/08/01 04:48:02;;;;;;;0.28;0.28;;;18.10;92.20;;;;;;4984533;28;20041;-79
2023/08/01 04:50:28;;;;;;;0.20;0.20;;;18.20;92.10;;;;;;4989982;28;20034;-78
2023/08/01 04:52:53;;;;;;;0.40;0.40;;;18.20;92.20;;;;;;4985934;28;20185;-79
2023/08/01 04:55:19;;;;;;;0.00;0.00;;;18.20;91.90;;;;;;4986113;28;20097;-80
2023/08/01 04:57:45;;;;;;;0.30;0.30;;;18.30;92.10;;;;;;4984632;28;20161;-80
2023/08/01 05:00:11;;;;;;;0.73;0.67;;;18.20;92.20;;;;;;4994228;28;20034;-78
2023/08/01 05:02:37;;;;;;;0.08;0.08;;;18.20;92.10;;;;;;4986295;28;20026;-79
2023/08/01 05:05:03;;;;;;;0.13;0.13;;;18.20;92.20;;;;;;4989011;28;20038;-79
2023/08/01 05:07:30;;;;;;;0.43;0.43;;;18.30;91.90;;;;;;4983411;28;20030;-79
2023/08/01 05:09:55;;;;;;;1.35;0.32;;;18.20;92.10;;;;;;4985081;28;20045;-79
2023/08/01 05:12:21;;;;;;;0.00;0.00;;;18.40;92.10;;;;;;4985149;28;20022;-81
2023/08/01 05:14:47;;;;;;;0.30;0.30;;;18.50;91.50;;;;;;4985573;28;20589;-79
2023/08/01 05:17:13;;;;;;;0.27;0.27;;;18.60;91.40;;;;;;4981913;28;20114;-81
2023/08/01 05:19:38;;;;;;;0.77;0.67;;;18.70;91.20;;;;;;4985358;28;20830;-81
2023/08/01 05:22:04;;;;;;;0.77;0.77;;;18.60;91.40;;;;;;4985056;28;20512;-80
2023/08/01 05:24:30;;;;;;;0.32;0.32;;;18.60;91.60;;;;;;4985084;28;20035;-80
2023/08/01 05:26:56;;;;;;;0.10;0.10;;;18.50;92.00;;;;;;4983842;28;20029;-80
2023/08/01 05:29:22;;;;;;;0.00;0.00;;;18.30;93.10;;;;;;4982554;28;20026;-80
2023/08/01 05:31:47;;;;;;;0.03;0.03;;;18.10;96.10;;;;;;4986501;28;20608;-79
2023/08/01 05:34:13;;;;;;;0.87;0.87;;;18.30;95.50;;;;;;4993657;28;20030;-80
2023/08/01 05:36:39;;;;;;;0.50;0.50;;;18.10;96.20;;;;;;4982796;28;20030;-80
2023/08/01 05:39:04;;;;;;;0.20;0.20;;;18.40;96.00;;;;;;4985193;28;20031;-80
2023/08/01 05:41:30;;;;;;;2.63;1.90;;;18.50;95.20;;;;;;4984000;28;20026;-80
2023/08/01 05:43:58;;;;;;;0.03;0.03;;;18.30;94.90;;;;;;4984472;28;20026;-79
2023/08/01 05:46:24;;;;;;;0.15;0.15;;;18.30;95.20;;;;;;4984300;28;20033;-80
2023/08/01 05:48:50;;;;;;;0.77;0.77;;;18.50;94.70;;;;;;4983202;28;20066;-77
2023/08/01 05:51:15;;;;;;;0.50;0.50;;;18.40;94.90;;;;;;4982305;28;20037;-77
2023/08/01 05:53:41;;;;;;;0.10;0.10;;;18.40;95.30;;;;;;4982046;28;20034;-78
2023/08/01 05:56:07;;;;;;;0.43;0.43;;;18.20;95.70;;;;;;4979648;28;20031;-76
2023/08/01 05:58:32;;;;;;;0.00;0.00;;;18.20;96.40;;;;;;4982298;28;20050;-76
2023/08/01 06:00:58;;;;;;;0.10;0.10;;;18.00;97.00;;;;;;4984143;28;20869;-77
2023/08/01 06:03:24;;;;;;;0.47;0.47;;;18.00;97.90;;;;;;4981427;28;20089;-78
2023/08/01 06:05:49;;;;;;;0.00;0.00;;;18.00;97.90;;;;;;4989777;28;20026;-76
2023/08/01 06:08:15;;;;;;;0.33;0.33;;;17.90;98.30;;;;;;4983719;28;20026;-76
2023/08/01 06:10:41;;;;;;;2.77;1.27;;;18.00;99.00;;;;;;4983976;28;20114;-78
2023/08/01 06:13:07;;;;;;;0.22;0.22;;;18.10;98.00;;;;;;4984428;28;20026;-77
2023/08/01 06:15:33;;;;;;;0.00;0.00;;;18.00;99.00;;;;;;4984277;28;20125;-76
2023/08/01 06:17:59;;;;;;;1.17;0.93;;;18.00;98.80;;;;;;4975757;28;20498;-76
2023/08/01 06:20:25;;;;;;;0.53;0.43;;;18.00;99.30;;;;;;4985388;28;20041;-76
2023/08/01 06:22:51;;;;;;;0.00;0.00;;;17.90;99.90;;;;;;4989643;28;20296;-79
2023/08/01 06:25:16;;;;;;;0.00;0.00;;;18.00;99.90;;;;;;4983367;28;20173;-79
2023/08/01 06:27:42;;;;;;;0.40;0.40;;;18.00;99.90;;;;;;4984248;28;20488;-77
2023/08/01 06:30:08;;;;;;;0.00;0.00;;;18.00;99.90;;;;;;4977811;28;20060;-78
2023/08/01 06:32:34;;;;;;;0.10;0.10;;;17.90;99.90;;;;;;4984053;28;20030;-77
2023/08/01 06:35:00;;;;;;;0.10;0.10;;;17.90;99.90;;;;;;4990784;28;20484;-76
2023/08/01 06:37:25;;;;;;;0.00;0.00;;;17.80;99.90;;;;;;4982703;28;20045;-75
2023/08/01 06:39:51;;;;;;;0.00;0.00;;;17.90;99.90;;;;;;4983925;28;20696;-76
2023/08/01 06:42:17;;;;;;;0.00;0.00;;;18.00;99.90;;;;;;4983451;28;20037;-76
2023/08/01 06:44:43;;;;;;;0.10;0.10;;;18.00;99.90;;;;;;4983756;28;20076;-75
2023/08/01 06:47:08;;;;;;;0.00;0.00;;;17.80;99.90;;;;;;4983832;28;20037;-77
2023/08/01 06:49:34;;;;;;;0.30;0.30;;;17.80;99.90;;;;;;4983590;28;20030;-76
2023/08/01 06:52:00;;;;;;;0.00;0.00;;;18.10;99.90;;;;;;4975749;28;20647;-76
2023/08/01 06:54:25;;;;;;;0.00;0.00;;;18.20;99.90;;;;;;4983715;28;20118;-75
2023/08/01 06:56:51;;;;;;;0.00;0.00;;;18.30;99.90;;;;;;4983527;28;20042;-75
2023/08/01 06:59:17;;;;;;;0.00;0.00;;;18.20;99.90;;;;;;4983680;28;20045;-75
2023/08/01 07:01:43;;;;;;;0.10;0.10;;;18.40;99.90;;;;;;4983525;28;20042;-76
2023/08/01 07:04:10;;;;;;;0.05;0.05;;;18.50;99.90;;;;;;4984051;28;20037;-75
2023/08/01 07:06:36;;;;;;;0.00;0.00;;;18.70;99.80;;;;;;4983237;28;20030;-77
2023/08/01 07:09:02;;;;;;;0.00;0.00;;;18.80;99.00;;;;;;4983070;28;20037;-76
2023/08/01 07:11:27;;;;;;;0.20;0.20;;;18.60;99.70;;;;;;4979599;28;20157;-77
2023/08/01 07:13:53;;;;;;;0.10;0.10;;;18.40;99.90;;;;;;4988075;28;20034;-76
2023/08/01 07:16:19;;;;;;;0.10;0.10;;;18.30;99.90;;;;;;4981125;28;20030;-79
2023/08/01 07:18:44;;;;;;;0.30;0.30;;;18.30;99.90;;;;;;4982682;28;20129;-74
2023/08/01 07:21:10;;;;;;;0.17;0.17;;;18.30;99.90;;;;;;4981597;28;20465;-78
2023/08/01 07:23:36;;;;;;;0.00;0.00;;;18.20;99.90;;;;;;4982685;28;20189;-75
2023/08/01 07:26:02;;;;;;;0.00;0.00;;;18.30;99.90;;;;;;4982254;28;20080;-75
2023/08/01 07:28:28;;;;;;;0.10;0.10;;;18.40;99.90;;;;;;4981291;28;20738;-75
2023/08/01 07:31:05;;;;;;;0.00;0.00;;;18.30;99.90;;;;;;4980400;28;20041;-76
2023/08/01 07:33:31;;;;;;;0.00;0.00;;;18.40;99.90;;;;;;4982125;28;20019;-76
2023/08/01 07:35:57;;;;;;;3.70;0.98;;;18.40;99.90;;;;;;4982828;28;20851;-75
2023/08/01 07:38:23;;;;;;;0.13;0.13;;;18.40;99.90;;;;;;4977347;28;20038;-77
2023/08/01 07:40:49;;;;;;;0.10;0.10;;;18.40;99.90;;;;;;4980368;28;20269;-78
2023/08/01 07:43:15;;;;;;;0.10;0.10;;;18.30;99.90;;;;;;4982227;28;20089;-77
2023/08/01 07:45:41;;;;;;;0.30;0.30;;;18.40;99.90;;;;;;4981883;28;20015;-78
2023/08/01 07:48:06;;;;;;;0.27;0.27;;;18.30;99.90;;;;;;4982303;28;20038;-75
2023/08/01 07:50:32;;;;;;;0.00;0.00;;;18.20;99.90;;;;;;4983263;28;20371;-75
2023/08/01 07:52:58;;;;;;;0.57;0.20;;;18.40;99.90;;;;;;4986463;28;20765;-76
2023/08/01 07:55:24;;;;;;;0.03;0.03;;;18.30;99.90;;;;;;4986830;28;20058;-78
2023/08/01 07:57:50;;;;;;;1.03;0.60;;;18.20;99.90;;;;;;4987537;28;20703;-76
2023/08/01 08:00:16;;;;;;;0.73;0.73;;;18.20;99.90;;;;;;4985112;28;20516;-75
2023/08/01 08:02:42;;;;;;;0.00;0.00;;;18.20;99.90;;;;;;4986665;28;20025;-75
2023/08/01 08:05:08;;;;;;;0.30;0.30;;;18.30;99.90;;;;;;4986239;28;20026;-76
2023/08/01 08:07:34;;;;;;;1.13;0.35;;;18.20;99.90;;;;;;4987076;28;20098;-78
2023/08/01 08:10:00;;;;;;;0.10;0.10;;;18.20;99.90;;;;;;4982721;28;20113;-76
2023/08/01 08:12:26;;;;;;;0.23;0.23;;;18.10;99.90;;;;;;4984987;28;20050;-75
2023/08/01 08:14:51;;;;;;;0.00;0.00;;;18.20;99.90;;;;;;4983231;28;20033;-75
2023/08/01 08:17:17;;;;;;;0.30;0.10;;;18.20;99.90;;;;;;4981445;28;20023;-74
2023/08/01 08:19:43;;;;;;;0.83;0.50;;;18.20;99.90;;;;;;4983482;28;20042;-75
2023/08/01 08:22:08;;;;;;;0.00;0.00;;;18.20;99.90;;;;;;4982739;28;20058;-77
2023/08/01 08:24:34;;;;;;;1.10;0.77;;;18.40;99.90;;;;;;4981160;28;20077;-80
2023/08/01 08:27:00;;;;;;;0.00;0.00;;;18.40;99.90;;;;;;4977825;28;20030;-75
2023/08/01 08:29:26;;;;;;;0.03;0.03;;;18.40;99.90;;;;;;4985958;28;20293;-78
2023/08/01 08:31:51;;;;;;;0.10;0.10;;;18.40;99.90;;;;;;4978839;28;20038;-79
2023/08/01 08:34:19;;;;;;;0.10;0.10;;;18.50;99.90;;;;;;4985322;28;20022;-76
2023/08/01 08:36:46;;;;;;;0.00;0.00;;;18.60;99.90;;;;;;4973065;28;20034;-75
2023/08/01 08:39:12;;;;;;;0.28;0.28;;;18.60;99.90;;;;;;4986417;28;20435;-76
2023/08/01 08:41:47;;;;;;;0.20;0.20;;;18.40;99.90;;;;;;4976151;28;20395;-75
2023/08/01 08:44:16;;;;;;;0.10;0.10;;;18.40;99.90;;;;;;4978151;28;20034;-76
2023/08/01 08:46:43;;;;;;;0.43;0.43;;;18.40;99.90;;;;;;4985372;28;20430;-76
2023/08/01 08:49:10;;;;;;;0.10;0.10;;;18.50;99.90;;;;;;4983802;28;20026;-77
2023/08/01 08:51:37;;;;;;;0.20;0.20;;;18.50;99.90;;;;;;4984290;28;20057;-75
2023/08/01 08:54:03;;;;;;;0.00;0.00;;;18.40;99.90;;;;;;4984686;28;20442;-76
2023/08/01 08:56:29;;;;;;;0.10;0.10;;;18.50;99.90;;;;;;4986068;28;20054;-77
2023/08/01 08:58:56;;;;;;;0.00;0.00;;;18.50;99.90;;;;;;4983146;28;20566;-76
2023/08/01 09:01:21;;;;;;;;;;;18.40;99.90;;;;;;4979961;28;20038;-75
2023/08/01 09:03:47;;;;;;;0.73;0.53;;;18.40;99.90;;;;;;4982607;28;20350;-75
2023/08/01 09:06:19;;;;;;;0.10;0.10;;;18.40;99.90;;;;;;4986153;28;20030;-75
2023/08/01 09:09:01;;;;;;;0.70;0.30;;;18.50;99.90;;;;;;4984227;28;20080;-78
2023/08/01 09:11:26;;;;;;;0.20;0.20;;;18.70;99.90;;;;;;4982932;28;20040;-76
2023/08/01 09:13:53;;;;;;;0.00;0.00;;;18.90;99.90;;;;;;4984643;28;20031;-75
2023/08/01 09:16:19;;;;;;;0.00;0.00;;;18.90;99.90;;;;;;4978247;28;20054;-77
2023/08/01 09:18:52;;;;;;;1.02;0.57;;;19.20;99.90;;;;;;4977557;28;20733;-77
2023/08/01 09:21:22;;;;;;;0.08;0.08;;;19.20;99.90;;;;;;4976248;28;20046;-76
2023/08/01 09:23:48;;;;;;;0.00;0.00;;;19.50;99.90;;;;;;4984335;28;20533;-74
2023/08/01 09:26:19;;;;;;;1.05;0.40;;;19.20;99.90;;;;;;4984025;28;20657;-79
2023/08/01 09:29:06;;;;;;;0.10;0.10;;;19.60;99.90;;;;;;4984554;28;20030;-76
2023/08/01 09:31:37;;;;;;;0.10;0.10;;;19.30;99.90;;;;;;4975314;28;20026;-75
2023/08/01 09:34:07;;;;;;;0.00;0.00;;;19.60;99.90;;;;;;4983789;28;20050;-75
2023/08/01 09:36:34;;;;;;;0.00;0.00;;;19.60;99.90;;;;;;4977595;28;20052;-77
2023/08/01 09:39:03;;;;;;;0.65;0.43;;;19.70;99.90;;;;;;4985060;28;20026;-76
2023/08/01 09:41:30;;;;;;;0.08;0.08;;;20.10;99.90;;;;;;4985081;28;20109;-76
2023/08/01 09:43:57;;;;;;;4.10;0.55;;;19.90;99.90;;;;;;4983100;28;20030;-78
2023/08/01 09:46:23;;;;;;;0.38;0.38;;;19.70;99.90;;;;;;4983890;28;20105;-75
2023/08/01 09:48:49;;;;;;;0.00;0.00;;;20.10;99.90;;;;;;4985584;28;20482;-78
2023/08/01 09:51:17;;;;;;;0.03;0.03;;;20.10;99.90;;;;;;4984912;28;20077;-77
2023/08/01 09:53:50;;;;;;;0.10;0.10;;;20.30;99.90;;;;;;4982842;28;20030;-76
2023/08/01 09:56:28;;;;;;;0.00;0.00;;;20.30;99.90;;;;;;4979767;28;20027;-75
2023/08/01 09:58:55;;;;;;;0.00;0.00;;;19.70;99.90;;;;;;4983684;28;20038;-77
2023/08/01 10:01:23;;;;;;;0.00;0.00;;;21.20;99.90;;;;;;4980355;28;20105;-77
2023/08/01 10:03:53;;;;;;;0.25;0.25;;;22.90;96.40;;;;;;4977176;28;20477;-78
2023/08/01 10:06:23;;;;;;;0.00;0.00;;;22.60;95.00;;;;;;4984235;28;20058;-76
2023/08/01 10:08:51;;;;;;;0.00;0.00;;;22.80;93.30;;;;;;4982928;28;20027;-76
2023/08/01 10:11:19;;;;;;;0.30;0.15;;;22.60;94.30;;;;;;4982542;28;20022;-76
2023/08/01 10:13:46;;;;;;;0.08;0.08;;;22.60;94.20;;;;;;4972507;28;20514;-76
2023/08/01 10:16:13;;;;;;;0.00;0.00;;;22.00;95.60;;;;;;4982218;28;20106;-75
2023/08/01 10:18:39;;;;;;;;;;;21.60;96.50;;;;;;4975171;28;20541;-76
2023/08/01 10:21:06;;;;;;;0.00;0.00;;;21.80;95.70;;;;;;4984126;28;19921;-77
2023/08/01 10:23:33;;;;;;;0.00;0.00;;;22.70;94.50;;;;;;4984383;28;20031;-75
2023/08/01 10:26:01;;;;;;;0.55;0.20;;;24.10;90.80;;;;;;4980849;28;20026;-79
2023/08/01 10:28:33;;;;;;;0.08;0.08;;;23.50;91.30;;;;;;4984520;28;20031;-76
2023/08/01 10:31:15;;;;;;;0.00;0.00;;;23.50;91.70;;;;;;4983211;28;20054;-77
2023/08/01 10:33:43;;;;;;;0.00;0.00;;;23.10;93.00;;;;;;4984011;28;20034;-80
2023/08/01 10:36:31;;;;;;;0.00;0.00;;;24.90;87.90;;;;;;4985137;28;20137;-76
2023/08/01 10:38:58;;;;;;;0.30;0.30;;;25.80;87.50;;;;;;4984503;28;20073;-77
2023/08/01 10:41:32;;;;;;;0.03;0.03;;;24.50;86.90;;;;;;4982514;28;20030;-76
2023/08/01 10:44:04;;;;;;;1.65;0.25;;;23.90;90.60;;;;;;4983796;28;20022;-75
2023/08/01 10:46:52;;;;;;;0.00;0.00;;;25.50;87.60;;;;;;4978631;28;20027;-77
2023/08/01 10:49:19;;;;;;;0.00;0.00;;;26.30;82.20;;;;;;4982363;28;20034;-76
2023/08/01 10:51:45;;;;;;;0.00;0.00;;;26.20;82.80;;;;;;4983112;28;20038;-76
2023/08/01 10:54:21;;;;;;;0.22;0.17;;;25.30;83.70;;;;;;4983846;28;20030;-77
2023/08/01 10:56:48;;;;;;;0.38;0.38;;;25.70;82.90;;;;;;4983604;28;20070;-76
2023/08/01 10:59:15;;;;;;;0.00;0.00;;;25.80;84.20;;;;;;4983596;28;20038;-78
2023/08/01 11:01:49;;;;;;;0.00;0.00;;;25.90;81.00;;;;;;4981616;28;20034;-77
2023/08/01 11:04:23;;;;;;;0.00;0.00;;;25.60;80.70;;;;;;4982655;28;20584;-77
2023/08/01 11:06:51;;;;;;;0.00;0.00;;;26.00;80.60;;;;;;4981564;28;20041;-76
2023/08/01 11:09:27;;;;;;;0.52;0.52;;;25.50;81.60;;;;;;4977373;28;20577;-76
2023/08/01 11:11:54;;;;;;;;;;;24.40;83.60;;;;;;4974027;28;20033;-75
2023/08/01 11:14:22;;;;;;;0.00;0.00;;;24.30;84.20;;;;;;4974660;28;19913;-76
2023/08/01 11:16:48;;;;;;;0.00;0.00;;;23.80;86.10;;;;;;4977966;28;20112;-76
2023/08/01 11:19:25;;;;;;;0.00;0.00;;;24.10;86.70;;;;;;4977320;28;20038;-77
2023/08/01 11:21:51;;;;;;;0.10;0.10;;;24.20;85.00;;;;;;4969050;28;20059;-75
2023/08/01 11:24:19;;;;;;;0.35;0.35;;;23.30;86.70;;;;;;4976964;28;20037;-78
2023/08/01 11:26:47;;;;;;;0.05;0.05;;;22.70;89.60;;;;;;4968602;28;20035;-77
2023/08/01 11:29:13;;;;;;;4.13;0.50;;;23.50;87.40;;;;;;4981255;28;20475;-76
2023/08/01 11:31:40;;;;;;;;;;;23.10;87.70;;;;;;4983943;28;20110;-78
2023/08/01 11:34:09;;;;;;;0.00;0.00;;;23.60;90.20;;;;;;4983716;28;19914;-76
2023/08/01 11:36:35;;;;;;;2.90;0.70;;;24.00;88.80;;;;;;4983400;28;20813;-77
2023/08/01 11:39:02;;;;;;;0.30;0.30;;;23.90;90.10;;;;;;4983009;28;20042;-77
2023/08/01 11:41:28;;;;;;;0.17;0.15;;;23.80;88.10;;;;;;4982760;28;20045;-75
2023/08/01 11:43:54;;;;;;;0.00;0.00;;;24.20;85.30;;;;;;4983101;28;20034;-75
2023/08/01 11:46:21;;;;;;;0.00;0.00;;;24.60;82.60;;;;;;4983156;28;20030;-76
2023/08/01 11:48:49;;;;;;;0.73;0.73;;;23.90;79.10;;;;;;4985081;28;20032;-75
2023/08/01 11:51:15;;;;;;;0.05;0.05;;;23.50;78.50;;;;;;4983082;28;20030;-75
2023/08/01 11:53:41;;;;;;;0.10;0.10;;;23.20;80.70;;;;;;4983132;28;20037;-80
2023/08/01 11:56:07;;;;;;;0.13;0.03;;;23.20;80.10;;;;;;4981442;28;20030;-77
2023/08/01 11:58:34;;;;;;;1.55;0.38;;;23.50;80.20;;;;;;4982980;28;20045;-75
2023/08/01 12:01:08;;;;;;;0.98;0.70;;;23.80;75.70;;;;;;4978350;28;20046;-76
2023/08/01 12:03:48;;;;;;;0.15;0.15;;;24.00;76.00;;;;;;4980932;28;20446;-75
2023/08/01 12:06:14;;;;;;;0.08;0.05;;;24.50;79.40;;;;;;4976943;28;20034;-77
2023/08/01 12:08:43;;;;;;;1.55;0.77;;;24.60;76.70;;;;;;4983444;28;20022;-75
2023/08/01 12:11:28;;;;;;;0.00;0.00;;;24.40;76.70;;;;;;4982375;28;20546;-77
2023/08/01 12:14:11;;;;;;;1.10;0.37;;;24.80;73.70;;;;;;4981537;28;20026;-77
2023/08/01 12:16:42;;;;;;;0.38;0.38;;;24.90;73.00;;;;;;4982148;28;20029;-76
2023/08/01 12:19:08;;;;;;;0.00;0.00;;;24.60;73.10;;;;;;4982401;28;20042;-78
2023/08/01 12:21:35;;;;;;;0.10;0.10;;;23.90;74.20;;;;;;4982277;28;20066;-77
2023/08/01 12:24:01;;;;;;;0.00;0.00;;;23.30;75.30;;;;;;4983031;28;20026;-76
2023/08/01 12:26:27;;;;;;;0.00;0.00;;;23.50;74.80;;;;;;4982356;28;20038;-76
2023/08/01 12:28:53;;;;;;;0.00;0.00;;;23.30;75.10;;;;;;4982662;28;20031;-75
2023/08/01 12:31:20;;;;;;;0.30;0.30;;;23.60;77.30;;;;;;4981050;28;20033;-77
2023/08/01 12:33:47;;;;;;;0.00;0.00;;;23.40;75.80;;;;;;4982486;28;20031;-75
2023/08/01 12:36:13;;;;;;;0.10;0.10;;;22.90;77.70;;;;;;4981104;28;20034;-76
2023/08/01 12:38:39;;;;;;;;;;;23.10;75.60;;;;;;4985587;28;20042;-76
2023/08/01 12:41:06;;;;;;;0.00;0.00;;;24.00;73.10;;;;;;4986105;28;19917;-77
2023/08/01 12:43:34;;;;;;;;;;;24.80;73.70;;;;;;4987014;28;20084;-76
2023/08/01 12:45:59;;;;;;;0.35;0.32;;;24.90;71.70;;;;;;4985494;28;20055;-76
2023/08/01 12:48:26;;;;;;;0.40;0.40;;;24.80;67.30;;;;;;4982307;28;20871;-75